sensor_id;sensor_type;location;lat;lon;timestamp;pressure;altitude;pressure_sealevel;temperature
13304;BMP280;6720;51.958;4.540;2023-04-03T00:00:25;102902.38;;;6.66
13304;BMP280;6720;51.958;4.540;2023-04-03T00:02:50;102897.72;;;6.56
13304;BMP280;6720;51.958;4.540;2023-04-03T00:05:16;102907.28;;;6.57
13304;BMP280;6720;51.958;4.540;2023-04-03T00:07:41;102906.47;;;6.58
13304;BMP280;6720;51.958;4.540;2023-04-03T00:10:07;102909.75;;;6.53
13304;BMP280;6720;51.958;4.540;2023-04-03T00:12:33;102912.19;;;6.48
13304;BMP280;6720;51.958;4.540;2023-04-03T00:14:58;102913.84;;;6.46
13304;BMP280;6720;51.958;4.540;2023-04-03T00:17:24;102907.84;;;6.47
13304;BMP280;6720;51.958;4.540;2023-04-03T00:19:49;102915.53;;;6.44
13304;BMP280;6720;51.958;4.540;2023-04-03T00:22:14;102913.84;;;6.46
13304;BMP280;6720;51.958;4.540;2023-04-03T00:24:40;102913.66;;;6.40
13304;BMP280;6720;51.958;4.540;2023-04-03T00:27:05;102918.94;;;6.42
13304;BMP280;6720;51.958;4.540;2023-04-03T00:29:31;102918.75;;;6.37
13304;BMP280;6720;51.958;4.540;2023-04-03T00:31:56;102916.16;;;6.37
13304;BMP280;6720;51.958;4.540;2023-04-03T00:34:21;102893.13;;;6.23
13304;BMP280;6720;51.958;4.540;2023-04-03T00:36:47;102916.06;;;6.34
13304;BMP280;6720;51.958;4.540;2023-04-03T00:39:12;102906.50;;;6.33
13304;BMP280;6720;51.958;4.540;2023-04-03T00:41:37;102916.78;;;6.30
13304;BMP280;6720;51.958;4.540;2023-04-03T00:45:24;102914.63;;;6.17
13304;BMP280;6720;51.958;4.540;2023-04-03T00:47:07;102924.34;;;6.23
13304;BMP280;6720;51.958;4.540;2023-04-03T00:50:01;102923.88;;;6.09
13304;BMP280;6720;51.958;4.540;2023-04-03T00:52:57;102921.28;;;6.09
13304;BMP280;6720;51.958;4.540;2023-04-03T00:55:56;102907.44;;;6.10
13304;BMP280;6720;51.958;4.540;2023-04-03T00:59:19;102928.97;;;6.06
13304;BMP280;6720;51.958;4.540;2023-04-03T01:02:13;102922.81;;;6.04
13304;BMP280;6720;51.958;4.540;2023-04-03T01:04:40;102927.94;;;6.01
13304;BMP280;6720;51.958;4.540;2023-04-03T01:07:08;102920.63;;;5.91
13304;BMP280;6720;51.958;4.540;2023-04-03T01:09:35;102933.81;;;5.96
13304;BMP280;6720;51.958;4.540;2023-04-03T01:12:22;102934.56;;;5.93
13304;BMP280;6720;51.958;4.540;2023-04-03T01:14:50;102931.94;;;5.93
13304;BMP280;6720;51.958;4.540;2023-04-03T01:25:51;102937.78;;;5.86
13304;BMP280;6720;51.958;4.540;2023-04-03T01:28:25;102934.94;;;5.80
13304;BMP280;6720;51.958;4.540;2023-04-03T01:33:31;102933.91;;;5.75
13304;BMP280;6720;51.958;4.540;2023-04-03T01:35:57;102930.22;;;5.70
13304;BMP280;6720;51.958;4.540;2023-04-03T01:38:22;102932.22;;;5.77
13304;BMP280;6720;51.958;4.540;2023-04-03T01:40:49;102946.78;;;5.72
13304;BMP280;6720;51.958;4.540;2023-04-03T01:43:15;102942.28;;;5.68
13304;BMP280;6720;51.958;4.540;2023-04-03T01:45:40;102943.81;;;5.63
13304;BMP280;6720;51.958;4.540;2023-04-03T01:48:06;102944.66;;;5.62
13304;BMP280;6720;51.958;4.540;2023-04-03T01:50:31;102937.97;;;5.69
13304;BMP280;6720;51.958;4.540;2023-04-03T01:52:57;102937.75;;;5.63
13304;BMP280;6720;51.958;4.540;2023-04-03T01:55:22;102936.00;;;5.62
13304;BMP280;6720;51.958;4.540;2023-04-03T01:57:47;102940.78;;;5.51
13304;BMP280;6720;51.958;4.540;2023-04-03T02:00:13;102933.09;;;5.54
13304;BMP280;6720;51.958;4.540;2023-04-03T02:02:39;102937.41;;;5.54
13304;BMP280;6720;51.958;4.540;2023-04-03T02:05:05;102950.38;;;5.54
13304;BMP280;6720;51.958;4.540;2023-04-03T02:07:31;102951.66;;;5.41
13304;BMP280;6720;51.958;4.540;2023-04-03T02:09:56;102949.34;;;5.49
13304;BMP280;6720;51.958;4.540;2023-04-03T02:12:22;102947.19;;;5.37
13304;BMP280;6720;51.958;4.540;2023-04-03T02:14:47;102955.06;;;5.40
13304;BMP280;6720;51.958;4.540;2023-04-03T02:17:12;102962.72;;;5.36
13304;BMP280;6720;51.958;4.540;2023-04-03T02:19:38;102950.31;;;5.29
13304;BMP280;6720;51.958;4.540;2023-04-03T02:22:04;102961.69;;;5.32
13304;BMP280;6720;51.958;4.540;2023-04-03T02:24:30;102955.44;;;5.27
13304;BMP280;6720;51.958;4.540;2023-04-03T02:26:55;102959.03;;;5.31
13304;BMP280;6720;51.958;4.540;2023-04-03T02:29:21;102952.00;;;5.28
13304;BMP280;6720;51.958;4.540;2023-04-03T02:31:46;102968.38;;;5.26
13304;BMP280;6720;51.958;4.540;2023-04-03T02:34:12;102966.53;;;5.23
13304;BMP280;6720;51.958;4.540;2023-04-03T02:36:37;102972.66;;;5.25
13304;BMP280;6720;51.958;4.540;2023-04-03T02:39:03;102973.03;;;5.12
13304;BMP280;6720;51.958;4.540;2023-04-03T02:41:28;102969.97;;;5.22
13304;BMP280;6720;51.958;4.540;2023-04-03T02:44:03;102970.06;;;5.25
13304;BMP280;6720;51.958;4.540;2023-04-03T02:46:29;102962.00;;;5.18
13304;BMP280;6720;51.958;4.540;2023-04-03T02:48:54;102964.66;;;5.19
13304;BMP280;6720;51.958;4.540;2023-04-03T02:51:20;102972.19;;;5.13
13304;BMP280;6720;51.958;4.540;2023-04-03T02:53:45;102969.47;;;5.10
13304;BMP280;6720;51.958;4.540;2023-04-03T02:56:10;102973.81;;;5.10
13304;BMP280;6720;51.958;4.540;2023-04-03T02:58:36;102965.00;;;5.06
13304;BMP280;6720;51.958;4.540;2023-04-03T03:01:02;102973.75;;;5.08
13304;BMP280;6720;51.958;4.540;2023-04-03T03:03:27;102968.28;;;5.02
13304;BMP280;6720;51.958;4.540;2023-04-03T03:06:03;102971.59;;;4.98
13304;BMP280;6720;51.958;4.540;2023-04-03T03:08:29;102962.75;;;4.93
13304;BMP280;6720;51.958;4.540;2023-04-03T03:10:55;102967.09;;;4.94
13304;BMP280;6720;51.958;4.540;2023-04-03T03:13:20;102975.66;;;4.92
13304;BMP280;6720;51.958;4.540;2023-04-03T03:15:45;102976.72;;;4.97
13304;BMP280;6720;51.958;4.540;2023-04-03T03:18:11;102970.41;;;4.90
13304;BMP280;6720;51.958;4.540;2023-04-03T03:20:36;102965.56;;;4.77
13304;BMP280;6720;51.958;4.540;2023-04-03T03:23:01;102977.94;;;4.84
13304;BMP280;6720;51.958;4.540;2023-04-03T03:25:27;102975.13;;;4.78
13304;BMP280;6720;51.958;4.540;2023-04-03T03:27:53;102962.97;;;4.77
13304;BMP280;6720;51.958;4.540;2023-04-03T03:30:18;102972.44;;;4.77
13304;BMP280;6720;51.958;4.540;2023-04-03T03:32:43;102978.34;;;4.73
13304;BMP280;6720;51.958;4.540;2023-04-03T03:35:09;102976.50;;;4.70
13304;BMP280;6720;51.958;4.540;2023-04-03T03:37:34;102979.25;;;4.73
13304;BMP280;6720;51.958;4.540;2023-04-03T03:40:00;102983.47;;;4.71
13304;BMP280;6720;51.958;4.540;2023-04-03T03:42:25;102986.97;;;4.72
13304;BMP280;6720;51.958;4.540;2023-04-03T03:44:50;102986.75;;;4.67
13304;BMP280;6720;51.958;4.540;2023-04-03T03:47:17;102995.19;;;4.62
13304;BMP280;6720;51.958;4.540;2023-04-03T03:49:42;102992.50;;;4.60
13304;BMP280;6720;51.958;4.540;2023-04-03T03:52:07;102987.06;;;4.54
13304;BMP280;6720;51.958;4.540;2023-04-03T03:54:36;102987.75;;;4.50
13304;BMP280;6720;51.958;4.540;2023-04-03T03:57:01;102978.16;;;4.48
13304;BMP280;6720;51.958;4.540;2023-04-03T03:59:27;102989.28;;;4.45
13304;BMP280;6720;51.958;4.540;2023-04-03T04:01:52;102991.19;;;4.49
13304;BMP280;6720;51.958;4.540;2023-04-03T04:04:17;102991.03;;;4.46
13304;BMP280;6720;51.958;4.540;2023-04-03T04:06:43;102996.13;;;4.43
13304;BMP280;6720;51.958;4.540;2023-04-03T04:09:09;102993.25;;;4.37
13304;BMP280;6720;51.958;4.540;2023-04-03T04:11:34;102988.91;;;4.36
13304;BMP280;6720;51.958;4.540;2023-04-03T04:14:00;102988.06;;;4.37
13304;BMP280;6720;51.958;4.540;2023-04-03T04:16:25;102989.69;;;4.35
13304;BMP280;6720;51.958;4.540;2023-04-03T04:18:51;102988.50;;;4.27
13304;BMP280;6720;51.958;4.540;2023-04-03T04:21:16;102994.72;;;4.31
13304;BMP280;6720;51.958;4.540;2023-04-03T04:23:41;102990.28;;;4.28
13304;BMP280;6720;51.958;4.540;2023-04-03T04:26:07;102986.72;;;4.26
13304;BMP280;6720;51.958;4.540;2023-04-03T04:28:32;102990.91;;;4.23
13304;BMP280;6720;51.958;4.540;2023-04-03T04:30:57;102991.63;;;4.20
13304;BMP280;6720;51.958;4.540;2023-04-03T04:33:23;102995.06;;;4.19
13304;BMP280;6720;51.958;4.540;2023-04-03T04:35:48;102992.31;;;4.16
13304;BMP280;6720;51.958;4.540;2023-04-03T04:38:14;102988.94;;;4.17
13304;BMP280;6720;51.958;4.540;2023-04-03T04:40:39;103005.28;;;4.16
13304;BMP280;6720;51.958;4.540;2023-04-03T04:43:05;102998.47;;;4.18
13304;BMP280;6720;51.958;4.540;2023-04-03T04:45:31;103002.63;;;4.15
13304;BMP280;6720;51.958;4.540;2023-04-03T04:47:56;102999.94;;;4.12
13304;BMP280;6720;51.958;4.540;2023-04-03T04:50:22;103007.72;;;4.12
13304;BMP280;6720;51.958;4.540;2023-04-03T04:52:47;103015.41;;;4.10
13304;BMP280;6720;51.958;4.540;2023-04-03T04:55:12;103011.72;;;4.05
13304;BMP280;6720;51.958;4.540;2023-04-03T04:57:38;103006.28;;;3.99
13304;BMP280;6720;51.958;4.540;2023-04-03T05:00:04;103018.25;;;3.97
13304;BMP280;6720;51.958;4.540;2023-04-03T05:02:30;103019.03;;;3.94
13304;BMP280;6720;51.958;4.540;2023-04-03T05:04:56;103019.63;;;3.89
13304;BMP280;6720;51.958;4.540;2023-04-03T05:07:22;103011.84;;;3.89
13304;BMP280;6720;51.958;4.540;2023-04-03T05:09:47;103017.03;;;3.89
13304;BMP280;6720;51.958;4.540;2023-04-03T05:12:13;103021.53;;;3.93
13304;BMP280;6720;51.958;4.540;2023-04-03T05:14:38;103014.38;;;3.87
13304;BMP280;6720;51.958;4.540;2023-04-03T05:17:03;103022.97;;;3.86
13304;BMP280;6720;51.958;4.540;2023-04-03T05:19:29;103023.06;;;3.88
13304;BMP280;6720;51.958;4.540;2023-04-03T05:21:54;103007.34;;;3.85
13304;BMP280;6720;51.958;4.540;2023-04-03T05:24:20;103028.53;;;3.94
13304;BMP280;6720;51.958;4.540;2023-04-03T05:26:45;103006.41;;;3.83
13304;BMP280;6720;51.958;4.540;2023-04-03T05:29:11;103027.41;;;3.89
13304;BMP280;6720;51.958;4.540;2023-04-03T05:31:36;103028.38;;;3.91
13304;BMP280;6720;51.958;4.540;2023-04-03T05:34:02;103030.13;;;3.92
13304;BMP280;6720;51.958;4.540;2023-04-03T05:36:28;103042.41;;;3.96
13304;BMP280;6720;51.958;4.540;2023-04-03T05:38:53;103025.84;;;3.92
13304;BMP280;6720;51.958;4.540;2023-04-03T05:41:21;103038.88;;;3.94
13304;BMP280;6720;51.958;4.540;2023-04-03T05:43:46;103031.91;;;3.93
13304;BMP280;6720;51.958;4.540;2023-04-03T05:46:17;103032.94;;;3.97
13304;BMP280;6720;51.958;4.540;2023-04-03T05:48:43;103039.13;;;4.00
13304;BMP280;6720;51.958;4.540;2023-04-03T05:51:15;103026.88;;;3.96
13304;BMP280;6720;51.958;4.540;2023-04-03T05:53:42;103032.34;;;4.02
13304;BMP280;6720;51.958;4.540;2023-04-03T05:56:09;103034.38;;;4.09
13304;BMP280;6720;51.958;4.540;2023-04-03T05:58:34;103030.69;;;4.04
13304;BMP280;6720;51.958;4.540;2023-04-03T06:01:00;103046.50;;;4.10
13304;BMP280;6720;51.958;4.540;2023-04-03T06:03:25;103043.78;;;4.07
13304;BMP280;6720;51.958;4.540;2023-04-03T06:05:51;103042.34;;;4.14
13304;BMP280;6720;51.958;4.540;2023-04-03T06:08:16;103044.38;;;4.21
13304;BMP280;6720;51.958;4.540;2023-04-03T06:10:42;103042.56;;;4.18
13304;BMP280;6720;51.958;4.540;2023-04-03T06:13:07;103054.34;;;4.31
13304;BMP280;6720;51.958;4.540;2023-04-03T06:15:33;103061.31;;;4.32
13304;BMP280;6720;51.958;4.540;2023-04-03T06:17:59;103063.56;;;4.43
13304;BMP280;6720;51.958;4.540;2023-04-03T06:20:24;103054.06;;;4.44
13304;BMP280;6720;51.958;4.540;2023-04-03T06:22:50;103050.84;;;4.49
13304;BMP280;6720;51.958;4.540;2023-04-03T06:25:15;103073.41;;;4.52
13304;BMP280;6720;51.958;4.540;2023-04-03T06:27:42;103059.81;;;4.57
13304;BMP280;6720;51.958;4.540;2023-04-03T06:30:08;103071.31;;;4.62
13304;BMP280;6720;51.958;4.540;2023-04-03T06:32:33;103073.06;;;4.63
13304;BMP280;6720;51.958;4.540;2023-04-03T06:34:59;103067.81;;;4.62
13304;BMP280;6720;51.958;4.540;2023-04-03T06:37:25;103071.31;;;4.62
13304;BMP280;6720;51.958;4.540;2023-04-03T06:39:54;103070.16;;;4.76
13304;BMP280;6720;51.958;4.540;2023-04-03T06:42:19;103065.72;;;4.74
13304;BMP280;6720;51.958;4.540;2023-04-03T06:44:45;103068.78;;;4.84
13304;BMP280;6720;51.958;4.540;2023-04-03T06:47:13;103073.09;;;5.04
13304;BMP280;6720;51.958;4.540;2023-04-03T06:49:39;103071.19;;;5.21
13304;BMP280;6720;51.958;4.540;2023-04-03T06:52:04;103068.88;;;5.28
13304;BMP280;6720;51.958;4.540;2023-04-03T06:54:30;103072.09;;;5.43
13304;BMP280;6720;51.958;4.540;2023-04-03T06:56:56;103081.66;;;5.44
13304;BMP280;6720;51.958;4.540;2023-04-03T06:59:21;103079.81;;;5.42
13304;BMP280;6720;51.958;4.540;2023-04-03T07:01:47;103082.34;;;5.40
13304;BMP280;6720;51.958;4.540;2023-04-03T07:04:14;103090.75;;;5.55
13304;BMP280;6720;51.958;4.540;2023-04-03T07:06:39;103090.94;;;5.60
13304;BMP280;6720;51.958;4.540;2023-04-03T07:09:05;103088.75;;;5.70
13304;BMP280;6720;51.958;4.540;2023-04-03T07:11:31;103092.50;;;5.77
13304;BMP280;6720;51.958;4.540;2023-04-03T07:13:56;103095.75;;;5.71
13304;BMP280;6720;51.958;4.540;2023-04-03T07:16:22;103088.28;;;5.58
13304;BMP280;6720;51.958;4.540;2023-04-03T07:18:47;103102.69;;;5.72
13304;BMP280;6720;51.958;4.540;2023-04-03T07:21:13;103107.94;;;5.94
13304;BMP280;6720;51.958;4.540;2023-04-03T07:23:38;103103.41;;;6.12
13304;BMP280;6720;51.958;4.540;2023-04-03T07:26:04;103108.41;;;6.06
13304;BMP280;6720;51.958;4.540;2023-04-03T07:28:30;103109.69;;;6.17
13304;BMP280;6720;51.958;4.540;2023-04-03T07:31:04;103114.66;;;6.11
13304;BMP280;6720;51.958;4.540;2023-04-03T07:33:31;103109.84;;;6.22
13304;BMP280;6720;51.958;4.540;2023-04-03T07:35:56;103109.69;;;6.41
13304;BMP280;6720;51.958;4.540;2023-04-03T07:38:22;103113.16;;;6.41
13304;BMP280;6720;51.958;4.540;2023-04-03T07:40:48;103107.97;;;6.65
13304;BMP280;6720;51.958;4.540;2023-04-03T07:43:15;103116.13;;;6.75
13304;BMP280;6720;51.958;4.540;2023-04-03T07:45:41;103130.22;;;6.57
13304;BMP280;6720;51.958;4.540;2023-04-03T07:48:09;103124.91;;;6.77
13304;BMP280;6720;51.958;4.540;2023-04-03T07:50:35;103124.38;;;6.87
13304;BMP280;6720;51.958;4.540;2023-04-03T07:53:01;103120.22;;;6.92
13304;BMP280;6720;51.958;4.540;2023-04-03T07:55:31;103124.53;;;6.92
13304;BMP280;6720;51.958;4.540;2023-04-03T07:58:00;103108.00;;;6.91
13304;BMP280;6720;51.958;4.540;2023-04-03T08:00:26;103130.81;;;6.98
13304;BMP280;6720;51.958;4.540;2023-04-03T08:02:51;103127.16;;;7.17
13304;BMP280;6720;51.958;4.540;2023-04-03T08:05:21;103131.63;;;6.96
13304;BMP280;6720;51.958;4.540;2023-04-03T08:07:47;103138.53;;;7.20
13304;BMP280;6720;51.958;4.540;2023-04-03T08:10:13;103135.41;;;7.30
13304;BMP280;6720;51.958;4.540;2023-04-03T08:12:41;103128.34;;;7.26
13304;BMP280;6720;51.958;4.540;2023-04-03T08:15:07;103139.03;;;7.35
13304;BMP280;6720;51.958;4.540;2023-04-03T08:17:34;103135.53;;;7.33
13304;BMP280;6720;51.958;4.540;2023-04-03T08:20:00;103139.81;;;7.59
13304;BMP280;6720;51.958;4.540;2023-04-03T08:22:26;103141.09;;;7.72
13304;BMP280;6720;51.958;4.540;2023-04-03T08:24:51;103141.78;;;7.66
13304;BMP280;6720;51.958;4.540;2023-04-03T08:27:17;103156.91;;;7.77
13304;BMP280;6720;51.958;4.540;2023-04-03T08:29:42;103152.84;;;7.58
13304;BMP280;6720;51.958;4.540;2023-04-03T08:32:08;103165.34;;;7.69
13304;BMP280;6720;51.958;4.540;2023-04-03T08:34:33;103154.97;;;7.71
13304;BMP280;6720;51.958;4.540;2023-04-03T08:37:00;103156.94;;;7.51
13304;BMP280;6720;51.958;4.540;2023-04-03T08:39:26;103154.25;;;7.48
13304;BMP280;6720;51.958;4.540;2023-04-03T08:41:52;103159.03;;;7.61
13304;BMP280;6720;51.958;4.540;2023-04-03T08:47:16;103151.88;;;8.11
13304;BMP280;6720;51.958;4.540;2023-04-03T08:49:47;103159.56;;;8.06
13304;BMP280;6720;51.958;4.540;2023-04-03T08:52:25;103155.22;;;8.07
13304;BMP280;6720;51.958;4.540;2023-04-03T08:55:01;103147.41;;;8.07
13304;BMP280;6720;51.958;4.540;2023-04-03T08:57:34;103160.34;;;8.30
13304;BMP280;6720;51.958;4.540;2023-04-03T09:00:05;103159.53;;;8.33
13304;BMP280;6720;51.958;4.540;2023-04-03T09:05:16;103136.91;;;8.32
13304;BMP280;6720;51.958;4.540;2023-04-03T09:07:46;103163.09;;;8.08
13304;BMP280;6720;51.958;4.540;2023-04-03T09:10:13;103168.91;;;8.56
13304;BMP280;6720;51.958;4.540;2023-04-03T09:12:55;103138.59;;;8.92
13304;BMP280;6720;51.958;4.540;2023-04-03T09:15:24;103152.16;;;9.11
13304;BMP280;6720;51.958;4.540;2023-04-03T09:20:35;103162.84;;;8.88
13304;BMP280;6720;51.958;4.540;2023-04-03T09:23:22;103155.38;;;9.34
13304;BMP280;6720;51.958;4.540;2023-04-03T09:25:52;103157.59;;;9.53
13304;BMP280;6720;51.958;4.540;2023-04-03T09:28:18;103145.63;;;9.99
13304;BMP280;6720;51.958;4.540;2023-04-03T09:30:44;103155.81;;;10.26
13304;BMP280;6720;51.958;4.540;2023-04-03T09:33:11;103140.03;;;10.23
13304;BMP280;6720;51.958;4.540;2023-04-03T09:35:40;103140.44;;;10.41
13304;BMP280;6720;51.958;4.540;2023-04-03T09:40:36;103152.69;;;10.86
13304;BMP280;6720;51.958;4.540;2023-04-03T09:48:59;103140.88;;;10.62
13304;BMP280;6720;51.958;4.540;2023-04-03T09:51:30;103120.00;;;11.15
13304;BMP280;6720;51.958;4.540;2023-04-03T09:53:56;103116.81;;;11.32
13304;BMP280;6720;51.958;4.540;2023-04-03T09:56:27;103123.03;;;11.95
13304;BMP280;6720;51.958;4.540;2023-04-03T10:04:12;103108.19;;;11.95
13304;BMP280;6720;51.958;4.540;2023-04-03T10:06:47;103103.38;;;12.30
13304;BMP280;6720;51.958;4.540;2023-04-03T10:09:29;103104.66;;;12.65
13304;BMP280;6720;51.958;4.540;2023-04-03T10:12:02;103095.50;;;13.10
13304;BMP280;6720;51.958;4.540;2023-04-03T10:14:31;103108.00;;;13.37
13304;BMP280;6720;51.958;4.540;2023-04-03T10:19:47;103108.03;;;13.41
13304;BMP280;6720;51.958;4.540;2023-04-03T10:22:41;103108.22;;;13.68
13304;BMP280;6720;51.958;4.540;2023-04-03T10:25:21;103108.91;;;13.39
13304;BMP280;6720;51.958;4.540;2023-04-03T10:27:55;103100.22;;;13.52
13304;BMP280;6720;51.958;4.540;2023-04-03T10:33:01;103086.19;;;13.50
13304;BMP280;6720;51.958;4.540;2023-04-03T10:35:43;103104.09;;;12.97
13304;BMP280;6720;51.958;4.540;2023-04-03T10:41:29;103088.13;;;13.87
13304;BMP280;6720;51.958;4.540;2023-04-03T10:47:02;103093.44;;;13.91
13304;BMP280;6720;51.958;4.540;2023-04-03T10:52:20;103085.50;;;13.82
13304;BMP280;6720;51.958;4.540;2023-04-03T10:57:41;103090.94;;;14.14
13304;BMP280;6720;51.958;4.540;2023-04-03T11:00:17;103089.84;;;13.79
13304;BMP280;6720;51.958;4.540;2023-04-03T11:03:00;103091.72;;;13.98
13304;BMP280;6720;51.958;4.540;2023-04-03T11:05:45;103082.25;;;14.34
13304;BMP280;6720;51.958;4.540;2023-04-03T11:08:25;103084.97;;;14.63
13304;BMP280;6720;51.958;4.540;2023-04-03T11:10:56;103065.66;;;14.84
13304;BMP280;6720;51.958;4.540;2023-04-03T11:13:28;103065.66;;;14.79
13304;BMP280;6720;51.958;4.540;2023-04-03T11:15:57;103060.00;;;13.75
13304;BMP280;6720;51.958;4.540;2023-04-03T11:18:46;103083.78;;;13.92
13304;BMP280;6720;51.958;4.540;2023-04-03T11:24:22;103058.56;;;14.43
13304;BMP280;6720;51.958;4.540;2023-04-03T11:26:50;103054.22;;;14.73
13304;BMP280;6720;51.958;4.540;2023-04-03T11:29:20;103057.69;;;14.56
13304;BMP280;6720;51.958;4.540;2023-04-03T11:32:05;103060.16;;;14.13
13304;BMP280;6720;51.958;4.540;2023-04-03T11:34:42;103038.38;;;14.57
13304;BMP280;6720;51.958;4.540;2023-04-03T11:37:29;103045.41;;;14.58
13304;BMP280;6720;51.958;4.540;2023-04-03T11:40:00;103019.03;;;15.22
13304;BMP280;6720;51.958;4.540;2023-04-03T11:42:36;103050.69;;;14.79
13304;BMP280;6720;51.958;4.540;2023-04-03T12:00:47;103017.28;;;15.36
13304;BMP280;6720;51.958;4.540;2023-04-03T12:05:49;103019.91;;;15.21
13304;BMP280;6720;51.958;4.540;2023-04-03T12:19:13;103004.63;;;16.25
13304;BMP280;6720;51.958;4.540;2023-04-03T12:22:05;103003.16;;;15.53
13304;BMP280;6720;51.958;4.540;2023-04-03T12:24:37;103001.28;;;15.81
13304;BMP280;6720;51.958;4.540;2023-04-03T12:27:17;102999.53;;;15.87
13304;BMP280;6720;51.958;4.540;2023-04-03T12:29:59;102989.13;;;15.41
13304;BMP280;6720;51.958;4.540;2023-04-03T12:35:37;102997.84;;;15.64
13304;BMP280;6720;51.958;4.540;2023-04-03T12:44:04;102990.84;;;15.57
13304;BMP280;6720;51.958;4.540;2023-04-03T12:46:43;102964.41;;;15.60
13304;BMP280;6720;51.958;4.540;2023-04-03T12:49:37;102988.22;;;15.19
13304;BMP280;6720;51.958;4.540;2023-04-03T12:52:39;102980.28;;;15.60
13304;BMP280;6720;51.958;4.540;2023-04-03T12:55:17;102972.22;;;15.91
13304;BMP280;6720;51.958;4.540;2023-04-03T12:57:43;102975.84;;;15.62
13304;BMP280;6720;51.958;4.540;2023-04-03T13:00:31;102968.69;;;15.89
13304;BMP280;6720;51.958;4.540;2023-04-03T13:02:59;102953.84;;;15.63
13304;BMP280;6720;51.958;4.540;2023-04-03T13:05:25;102959.78;;;16.07
13304;BMP280;6720;51.958;4.540;2023-04-03T13:08:04;102954.72;;;15.63
13304;BMP280;6720;51.958;4.540;2023-04-03T13:10:30;102954.41;;;16.17
13304;BMP280;6720;51.958;4.540;2023-04-03T13:13:07;102954.81;;;15.41
13304;BMP280;6720;51.958;4.540;2023-04-03T13:15:43;102926.94;;;16.38
13304;BMP280;6720;51.958;4.540;2023-04-03T13:18:33;102948.66;;;15.36
13304;BMP280;6720;51.958;4.540;2023-04-03T13:21:02;102945.63;;;16.14
13304;BMP280;6720;51.958;4.540;2023-04-03T13:23:29;102959.94;;;15.75
13304;BMP280;6720;51.958;4.540;2023-04-03T13:25:56;102963.41;;;15.86
13304;BMP280;6720;51.958;4.540;2023-04-03T13:28:26;102950.31;;;15.64
13304;BMP280;6720;51.958;4.540;2023-04-03T13:33:53;102937.53;;;16.44
13304;BMP280;6720;51.958;4.540;2023-04-03T13:36:26;102943.59;;;16.58
13304;BMP280;6720;51.958;4.540;2023-04-03T13:41:48;102950.75;;;16.45
13304;BMP280;6720;51.958;4.540;2023-04-03T13:46:43;102957.88;;;16.28
13304;BMP280;6720;51.958;4.540;2023-04-03T13:51:43;102946.25;;;16.56
13304;BMP280;6720;51.958;4.540;2023-04-03T13:54:22;102935.66;;;16.58
13304;BMP280;6720;51.958;4.540;2023-04-03T13:56:56;102924.81;;;15.51
13304;BMP280;6720;51.958;4.540;2023-04-03T13:59:29;102943.09;;;15.97
13304;BMP280;6720;51.958;4.540;2023-04-03T14:02:12;102918.25;;;16.27
13304;BMP280;6720;51.958;4.540;2023-04-03T14:04:48;102915.56;;;16.28
13304;BMP280;6720;51.958;4.540;2023-04-03T14:07:16;102921.38;;;16.80
13304;BMP280;6720;51.958;4.540;2023-04-03T14:09:42;102919.44;;;16.94
13304;BMP280;6720;51.958;4.540;2023-04-03T14:12:27;102934.16;;;16.18
13304;BMP280;6720;51.958;4.540;2023-04-03T14:14:54;102931.31;;;16.48
13304;BMP280;6720;51.958;4.540;2023-04-03T14:17:25;102920.09;;;16.16
13304;BMP280;6720;51.958;4.540;2023-04-03T14:19:53;102905.81;;;16.38
13304;BMP280;6720;51.958;4.540;2023-04-03T14:22:24;102907.13;;;16.90
13304;BMP280;6720;51.958;4.540;2023-04-03T14:24:51;102910.69;;;16.89
13304;BMP280;6720;51.958;4.540;2023-04-03T14:27:28;102894.66;;;17.01
13304;BMP280;6720;51.958;4.540;2023-04-03T14:29:57;102894.91;;;16.80
13304;BMP280;6720;51.958;4.540;2023-04-03T14:32:24;102896.34;;;17.08
13304;BMP280;6720;51.958;4.540;2023-04-03T14:34:51;102899.91;;;17.08
13304;BMP280;6720;51.958;4.540;2023-04-03T14:37:20;102874.53;;;16.86
13304;BMP280;6720;51.958;4.540;2023-04-03T14:39:48;102885.19;;;16.77
13304;BMP280;6720;51.958;4.540;2023-04-03T14:42:18;102877.19;;;16.85
13304;BMP280;6720;51.958;4.540;2023-04-03T14:44:44;102897.91;;;16.36
13304;BMP280;6720;51.958;4.540;2023-04-03T14:47:12;102872.53;;;16.10
13304;BMP280;6720;51.958;4.540;2023-04-03T14:49:38;102879.25;;;16.56
13304;BMP280;6720;51.958;4.540;2023-04-03T14:52:04;102883.47;;;16.73
13304;BMP280;6720;51.958;4.540;2023-04-03T14:54:31;102898.75;;;16.46
13304;BMP280;6720;51.958;4.540;2023-04-03T14:56:59;102877.38;;;16.67
13304;BMP280;6720;51.958;4.540;2023-04-03T14:59:25;102884.38;;;16.71
13304;BMP280;6720;51.958;4.540;2023-04-03T15:01:50;102883.69;;;16.52
13304;BMP280;6720;51.958;4.540;2023-04-03T15:04:19;102889.91;;;16.41
13304;BMP280;6720;51.958;4.540;2023-04-03T15:06:47;102893.56;;;16.28
13304;BMP280;6720;51.958;4.540;2023-04-03T15:09:26;102880.97;;;16.60
13304;BMP280;6720;51.958;4.540;2023-04-03T15:11:53;102886.44;;;16.39
13304;BMP280;6720;51.958;4.540;2023-04-03T15:14:19;102893.47;;;16.40
13304;BMP280;6720;51.958;4.540;2023-04-03T15:16:45;102868.19;;;16.04
13304;BMP280;6720;51.958;4.540;2023-04-03T15:19:10;102873.13;;;16.52
13304;BMP280;6720;51.958;4.540;2023-04-03T15:21:38;102884.94;;;16.05
13304;BMP280;6720;51.958;4.540;2023-04-03T15:24:04;102879.44;;;16.30
13304;BMP280;6720;51.958;4.540;2023-04-03T15:26:31;102880.28;;;16.34
13304;BMP280;6720;51.958;4.540;2023-04-03T15:28:57;102879.34;;;16.44
13304;BMP280;6720;51.958;4.540;2023-04-03T15:31:22;102871.16;;;16.69
13304;BMP280;6720;51.958;4.540;2023-04-03T15:33:48;102864.78;;;16.90
13304;BMP280;6720;51.958;4.540;2023-04-03T15:36:13;102848.75;;;17.05
13304;BMP280;6720;51.958;4.540;2023-04-03T15:38:39;102852.09;;;17.20
13304;BMP280;6720;51.958;4.540;2023-04-03T15:41:04;102851.34;;;17.08
13304;BMP280;6720;51.958;4.540;2023-04-03T15:43:30;102855.84;;;17.03
13304;BMP280;6720;51.958;4.540;2023-04-03T15:45:58;102851.09;;;16.49
13304;BMP280;6720;51.958;4.540;2023-04-03T15:48:24;102867.47;;;15.80
13304;BMP280;6720;51.958;4.540;2023-04-03T15:50:50;102846.34;;;15.77
13304;BMP280;6720;51.958;4.540;2023-04-03T15:53:16;102858.78;;;15.63
13304;BMP280;6720;51.958;4.540;2023-04-03T15:55:41;102851.59;;;15.86
13304;BMP280;6720;51.958;4.540;2023-04-03T15:58:07;102855.91;;;15.97
13304;BMP280;6720;51.958;4.540;2023-04-03T16:00:33;102858.38;;;16.21
13304;BMP280;6720;51.958;4.540;2023-04-03T16:03:07;102843.66;;;15.87
13304;BMP280;6720;51.958;4.540;2023-04-03T16:05:35;102854.97;;;16.06
13304;BMP280;6720;51.958;4.540;2023-04-03T16:08:01;102863.84;;;15.96